HEAX/ALY METAR and TAF weather

Enter ICAO airport designator
Station Type Date Time Source
HEAX METAR 2021/07/26 12:00 UTC NOAA

HEAX 261200Z 31008KT CAVOK 31/20 Q1010


Station Type Date Time Source
HEAX Decoded METAR 2021/07/26 12:00 UTC NOAA

Alexandria / Nouzha, Egypt (HEAX) 31-12N 029-57E 7M
Jul 26, 2021 - 08:00 AM EDT / 2021.07.26 1200 UTC
Wind: from the NW (310 degrees) at 9 MPH (8 KT):0
Visibility: greater than 7 mile(s):0
Temperature: 87 F (31 C)
Dew Point: 68 F (20 C)
Relative Humidity: 52%
Pressure (altimeter): 29.83 in. Hg (1010 hPa)
ob: HEAX 261200Z 31008KT CAVOK 31/20 Q1010
cycle: 12

Station Type Date Time Source
HEAX TAF 2021/07/26 12:51 UTC NOAA

TAF TAF HEAX 261100Z 2612/2718 30011KT 9999 FEW020

Example: see airport list